Time;durP1;ratioP1;P1;durP2;ratioP2;P2;SDS_P1;SDS_P2;PMS_P1;PMS_P2;Temp;Humidity;BMP_temperature;BMP_pressure;BME280_temperature;BME280_humidity;BME280_pressure;Samples;Min_cycle;Max_cycle;Signal;HPM_P1;HPM_P2
2021/10/14 00:01:12;;;;;;;11.98;7.45;;;;;;;;;;5016011;28;20232;-74
2021/10/14 00:03:40;;;;;;;28.33;8.07;;;;;;;;;;5019793;28;20198;-74
2021/10/14 00:06:06;;;;;;;16.13;7.32;;;;;;;;;;5016030;28;20189;-73
2021/10/14 00:08:31;;;;;;;14.65;7.63;;;;;;;;;;5027267;28;20174;-74
2021/10/14 00:10:56;;;;;;;13.43;8.43;;;;;;;;;;5016089;28;20285;-73
2021/10/14 00:13:22;;;;;;;19.15;8.63;;;;;;;;;;5025865;28;20194;-73
2021/10/14 00:15:47;;;;;;;16.77;8.15;;;;;;;;;;5017443;28;20268;-73
2021/10/14 00:18:12;;;;;;;17.35;8.57;;;;;;;;;;5026284;28;20201;-73
2021/10/14 00:20:38;;;;;;;22.80;9.95;;;;;;;;;;5016247;28;20629;-73
2021/10/14 00:23:03;;;;;;;21.98;9.60;;;;;;;;;;5024358;28;20190;-73
2021/10/14 00:25:31;;;;;;;18.92;9.55;;;;;;;;;;5025856;28;20271;-74
2021/10/14 00:27:56;;;;;;;20.02;10.00;;;;;;;;;;5019857;28;20284;-74
2021/10/14 00:30:21;;;;;;;18.20;10.35;;;;;;;;;;5026960;28;20234;-74
2021/10/14 00:32:47;;;;;;;26.05;11.27;;;;;;;;;;5014218;28;20178;-74
2021/10/14 00:35:12;;;;;;;19.70;11.18;;;;;;;;;;5021217;28;20560;-74
2021/10/14 00:37:38;;;;;;;16.48;10.52;;;;;;;;;;5017761;28;20547;-75
2021/10/14 00:40:05;;;;;;;19.00;11.73;;;;;;;;;;5026023;28;20497;-74
2021/10/14 00:42:30;;;;;;;24.88;12.18;;;;;;;;;;5014809;28;20542;-74
2021/10/14 00:44:57;;;;;;;23.50;13.05;;;;;;;;;;5024330;28;20212;-75
2021/10/14 00:47:27;;;;;;;23.75;11.90;;;;;;;;;;5015666;28;20229;-73
2021/10/14 00:49:54;;;;;;;25.52;12.20;;;;;;;;;;5025798;28;20724;-74
2021/10/14 00:52:20;;;;;;;23.17;14.32;;;;;;;;;;5012629;28;20194;-73
2021/10/14 00:54:53;;;;;;;20.35;13.73;;;;;;;;;;5021717;28;20269;-73
2021/10/14 00:57:19;;;;;;;22.25;14.43;;;;;;;;;;5012359;28;20218;-74
2021/10/14 00:59:45;;;;;;;23.98;15.05;;;;;;;;;;5026369;28;20178;-73
2021/10/14 01:02:11;;;;;;;26.95;14.75;;;;;;;;;;5021072;28;20225;-73
2021/10/14 01:04:36;;;;;;;31.55;17.42;;;;;;;;;;5017494;28;20194;-73
2021/10/14 01:07:02;;;;;;;23.25;14.30;;;;;;;;;;5024701;28;20568;-74
2021/10/14 01:09:28;;;;;;;22.23;16.20;;;;;;;;;;5017831;28;20186;-73
2021/10/14 01:11:57;;;;;;;24.83;17.67;;;;;;;;;;5023633;28;20183;-74
2021/10/14 01:14:22;;;;;;;27.67;18.13;;;;;;;;;;5016441;28;20193;-74
2021/10/14 01:16:48;;;;;;;28.58;18.65;;;;;;;;;;5021318;28;20190;-74
2021/10/14 01:19:14;;;;;;;23.33;18.23;;;;;;;;;;5018294;28;20692;-73
2021/10/14 01:21:41;;;;;;;28.90;19.60;;;;;;;;;;5020077;28;20266;-74
2021/10/14 01:24:07;;;;;;;27.88;17.58;;;;;;;;;;5017414;28;20190;-74
2021/10/14 01:26:32;;;;;;;28.70;19.13;;;;;;;;;;5021956;28;20186;-74
2021/10/14 01:28:58;;;;;;;29.58;20.45;;;;;;;;;;5017713;28;20204;-73
2021/10/14 01:31:25;;;;;;;34.33;21.40;;;;;;;;;;5024756;28;20228;-74
2021/10/14 01:33:50;;;;;;;28.42;20.13;;;;;;;;;;5021319;28;20190;-73
2021/10/14 01:36:16;;;;;;;27.90;20.13;;;;;;;;;;5015759;28;20201;-74
2021/10/14 01:38:41;;;;;;;29.65;19.65;;;;;;;;;;5022844;28;20657;-73
2021/10/14 01:41:07;;;;;;;29.48;20.50;;;;;;;;;;5013285;28;20206;-74
2021/10/14 01:43:35;;;;;;;29.02;20.85;;;;;;;;;;5024741;28;20193;-75
2021/10/14 01:46:02;;;;;;;27.42;20.80;;;;;;;;;;5015500;28;20230;-74
2021/10/14 01:48:30;;;;;;;29.45;20.83;;;;;;;;;;5022350;28;20200;-74
2021/10/14 01:50:56;;;;;;;30.70;21.75;;;;;;;;;;5016905;28;20190;-74
2021/10/14 01:53:22;;;;;;;26.25;19.88;;;;;;;;;;5026248;28;20665;-74
2021/10/14 01:55:48;;;;;;;31.92;21.17;;;;;;;;;;5014315;28;20194;-74
2021/10/14 01:58:13;;;;;;;33.13;21.30;;;;;;;;;;5023205;28;20705;-74
2021/10/14 02:00:39;;;;;;;30.92;21.02;;;;;;;;;;5015920;28;20245;-74
2021/10/14 02:03:05;;;;;;;27.30;21.30;;;;;;;;;;5024267;28;20239;-74
2021/10/14 02:05:31;;;;;;;31.80;21.20;;;;;;;;;;5023316;28;20186;-73
2021/10/14 02:07:56;;;;;;;27.80;20.02;;;;;;;;;;5014634;28;20624;-74
2021/10/14 02:10:22;;;;;;;31.08;20.48;;;;;;;;;;5025326;28;20189;-74
2021/10/14 02:12:47;;;;;;;33.20;20.55;;;;;;;;;;5016369;28;20190;-74
2021/10/14 02:15:13;;;;;;;27.83;20.77;;;;;;;;;;5023729;28;20194;-74
2021/10/14 02:17:39;;;;;;;32.70;20.38;;;;;;;;;;5015959;28;20571;-73
2021/10/14 02:20:06;;;;;;;24.95;18.17;;;;;;;;;;5026006;28;20178;-75
2021/10/14 02:22:31;;;;;;;26.70;18.90;;;;;;;;;;5012910;28;20210;-74
2021/10/14 02:24:57;;;;;;;27.27;17.90;;;;;;;;;;5025599;28;20208;-73
2021/10/14 02:27:22;;;;;;;24.17;17.65;;;;;;;;;;5018293;28;20321;-74
2021/10/14 02:29:48;;;;;;;28.90;19.90;;;;;;;;;;5028615;28;20513;-75
2021/10/14 02:32:13;;;;;;;28.27;18.90;;;;;;;;;;5015683;28;20186;-73
2021/10/14 02:34:38;;;;;;;24.85;18.70;;;;;;;;;;5024826;28;24150;-75
2021/10/14 02:37:04;;;;;;;25.30;17.90;;;;;;;;;;5027445;28;20218;-74
2021/10/14 02:39:29;;;;;;;27.05;17.95;;;;;;;;;;5014472;28;20194;-75
2021/10/14 02:41:54;;;;;;;27.52;17.80;;;;;;;;;;5026625;28;20550;-74
2021/10/14 02:44:20;;;;;;;27.85;17.52;;;;;;;;;;5015216;28;20174;-73
2021/10/14 02:46:45;;;;;;;25.65;17.67;;;;;;;;;;5025282;28;20190;-74
2021/10/14 02:49:10;;;;;;;29.25;17.92;;;;;;;;;;5018900;28;20617;-74
2021/10/14 02:51:36;;;;;;;24.30;17.38;;;;;;;;;;5025306;28;20178;-73
2021/10/14 02:54:01;;;;;;;27.85;18.00;;;;;;;;;;5019970;28;20201;-74
2021/10/14 02:56:26;;;;;;;22.85;16.35;;;;;;;;;;5024692;28;20626;-74
2021/10/14 02:58:51;;;;;;;28.35;17.48;;;;;;;;;;5019477;28;20197;-76
2021/10/14 03:01:17;;;;;;;24.73;17.05;;;;;;;;;;5026627;28;20222;-73
2021/10/14 03:03:42;;;;;;;27.35;16.88;;;;;;;;;;5024321;28;20928;-74
2021/10/14 03:06:08;;;;;;;24.17;16.80;;;;;;;;;;5019871;28;20190;-74
2021/10/14 03:08:33;;;;;;;24.65;15.75;;;;;;;;;;5024975;28;20654;-74
2021/10/14 03:10:58;;;;;;;27.23;16.50;;;;;;;;;;5021451;28;20251;-74
2021/10/14 03:13:24;;;;;;;25.20;15.85;;;;;;;;;;5024739;28;20483;-73
2021/10/14 03:15:49;;;;;;;24.77;15.90;;;;;;;;;;5021203;28;20182;-74
2021/10/14 03:18:14;;;;;;;24.95;15.43;;;;;;;;;;5025732;28;20186;-74
2021/10/14 03:20:40;;;;;;;24.60;14.40;;;;;;;;;;5017125;28;20577;-74
2021/10/14 03:23:05;;;;;;;30.10;14.43;;;;;;;;;;5023420;28;20210;-73
2021/10/14 03:25:30;;;;;;;22.90;15.88;;;;;;;;;;5019796;28;20182;-73
2021/10/14 03:27:56;;;;;;;28.23;16.77;;;;;;;;;;5025783;28;20181;-74
2021/10/14 03:30:21;;;;;;;28.92;16.75;;;;;;;;;;5019154;28;20325;-74
2021/10/14 03:32:46;;;;;;;27.33;16.70;;;;;;;;;;5027705;28;20247;-74
2021/10/14 03:35:12;;;;;;;26.60;16.23;;;;;;;;;;5025606;28;20690;-74
2021/10/14 03:37:38;;;;;;;22.88;15.77;;;;;;;;;;5016581;28;20751;-74
2021/10/14 03:40:03;;;;;;;31.23;17.42;;;;;;;;;;5025606;28;20273;-74
2021/10/14 03:42:29;;;;;;;28.10;17.05;;;;;;;;;;5010526;28;20604;-74
2021/10/14 03:44:54;;;;;;;29.05;17.38;;;;;;;;;;5028045;28;20182;-74
2021/10/14 03:47:20;;;;;;;29.30;18.38;;;;;;;;;;5016680;28;20190;-74
2021/10/14 03:49:45;;;;;;;33.28;18.60;;;;;;;;;;5028279;28;20269;-74
2021/10/14 03:52:10;;;;;;;27.10;18.38;;;;;;;;;;5016135;28;20236;-73
2021/10/14 03:54:36;;;;;;;34.45;19.35;;;;;;;;;;5026981;28;20200;-74
2021/10/14 03:57:01;;;;;;;35.25;19.00;;;;;;;;;;5018497;28;20225;-74
2021/10/14 03:59:26;;;;;;;25.58;18.30;;;;;;;;;;5027087;28;20759;-73
2021/10/14 04:01:52;;;;;;;26.98;18.65;;;;;;;;;;5016574;28;20225;-73
2021/10/14 04:04:17;;;;;;;35.15;20.75;;;;;;;;;;5021847;28;20202;-74
2021/10/14 04:06:42;;;;;;;40.28;21.48;;;;;;;;;;5024935;28;20183;-74
2021/10/14 04:09:08;;;;;;;30.35;19.73;;;;;;;;;;5017762;28;20519;-74
2021/10/14 04:11:33;;;;;;;35.50;19.38;;;;;;;;;;5024348;28;20283;-74
2021/10/14 04:13:58;;;;;;;32.33;21.33;;;;;;;;;;5014958;28;20551;-74
2021/10/14 04:16:24;;;;;;;35.63;19.33;;;;;;;;;;5025562;28;20182;-74
2021/10/14 04:18:49;;;;;;;32.85;20.02;;;;;;;;;;5017795;28;20186;-74
2021/10/14 04:21:14;;;;;;;29.77;19.17;;;;;;;;;;5024746;28;20681;-74
2021/10/14 04:23:44;;;;;;;35.65;20.58;;;;;;;;;;5015874;28;20186;-73
2021/10/14 04:26:10;;;;;;;37.60;20.25;;;;;;;;;;5025546;28;20232;-73
2021/10/14 04:28:36;;;;;;;32.75;19.05;;;;;;;;;;5013096;28;20204;-73
2021/10/14 04:31:02;;;;;;;34.17;20.35;;;;;;;;;;5026817;28;20637;-73
2021/10/14 04:33:29;;;;;;;33.20;20.73;;;;;;;;;;5017939;28;20307;-73
2021/10/14 04:35:55;;;;;;;34.92;21.10;;;;;;;;;;5023304;28;20205;-73
2021/10/14 04:38:20;;;;;;;33.58;21.58;;;;;;;;;;5022224;28;20236;-74
2021/10/14 04:40:46;;;;;;;35.08;20.80;;;;;;;;;;5013682;28;20622;-73
2021/10/14 04:43:11;;;;;;;38.40;22.92;;;;;;;;;;5023459;28;20221;-73
2021/10/14 04:45:36;;;;;;;37.35;22.88;;;;;;;;;;5016923;28;20673;-73
2021/10/14 04:48:02;;;;;;;34.55;20.98;;;;;;;;;;5021979;28;20243;-73
2021/10/14 04:50:27;;;;;;;34.17;20.17;;;;;;;;;;5013415;28;20240;-73
2021/10/14 04:52:52;;;;;;;40.10;21.38;;;;;;;;;;5021193;28;20448;-74
2021/10/14 04:55:18;;;;;;;36.58;22.45;;;;;;;;;;5016118;28;20208;-74
2021/10/14 04:57:43;;;;;;;38.88;23.75;;;;;;;;;;5023710;28;20218;-73
2021/10/14 05:00:09;;;;;;;41.72;23.02;;;;;;;;;;5014937;28;20217;-73
2021/10/14 05:02:34;;;;;;;39.33;23.05;;;;;;;;;;5021943;28;20209;-73
2021/10/14 05:05:01;;;;;;;50.63;24.55;;;;;;;;;;5015895;28;20666;-73
2021/10/14 05:07:26;;;;;;;45.78;25.38;;;;;;;;;;5022866;28;20186;-73
2021/10/14 05:09:51;;;;;;;58.40;28.25;;;;;;;;;;5025224;28;20209;-73
2021/10/14 05:12:19;;;;;;;58.97;28.38;;;;;;;;;;5012271;28;20178;-74
2021/10/14 05:14:44;;;;;;;58.88;29.58;;;;;;;;;;5025704;28;20190;-74
2021/10/14 05:17:09;;;;;;;65.15;29.15;;;;;;;;;;4317363;28;10000850;-74
2021/10/14 05:19:35;;;;;;;59.30;28.88;;;;;;;;;;5021327;28;20450;-74
2021/10/14 05:22:00;;;;;;;65.80;31.67;;;;;;;;;;5013790;28;20206;-74
2021/10/14 05:24:25;;;;;;;63.22;30.83;;;;;;;;;;5019750;28;20269;-73
2021/10/14 05:26:51;;;;;;;70.43;32.63;;;;;;;;;;5010695;28;20265;-74
2021/10/14 05:29:16;;;;;;;66.25;30.77;;;;;;;;;;5021679;28;20618;-74
2021/10/14 05:31:41;;;;;;;68.63;32.28;;;;;;;;;;5013537;28;20190;-74
2021/10/14 05:34:07;;;;;;;64.60;30.58;;;;;;;;;;5022103;28;20196;-75
2021/10/14 05:36:32;;;;;;;73.47;31.77;;;;;;;;;;5009305;28;20233;-74
2021/10/14 05:38:57;;;;;;;68.47;30.85;;;;;;;;;;5019568;28;20252;-74
2021/10/14 05:41:23;;;;;;;68.70;31.45;;;;;;;;;;5023536;28;20208;-74
2021/10/14 05:43:48;;;;;;;73.70;31.92;;;;;;;;;;5013440;28;20190;-74
2021/10/14 05:46:13;;;;;;;70.88;31.77;;;;;;;;;;5023535;28;20272;-74
2021/10/14 05:48:39;;;;;;;69.65;32.60;;;;;;;;;;5018036;28;20209;-74
2021/10/14 05:51:04;;;;;;;68.72;31.52;;;;;;;;;;5021954;28;20185;-74
2021/10/14 05:53:30;;;;;;;72.07;31.88;;;;;;;;;;5015459;28;20273;-74
2021/10/14 05:55:57;;;;;;;66.28;30.63;;;;;;;;;;5023847;28;20211;-75
2021/10/14 05:58:22;;;;;;;66.13;29.83;;;;;;;;;;5014487;28;20198;-74
2021/10/14 06:00:47;;;;;;;64.15;28.65;;;;;;;;;;5023481;28;20692;-75
2021/10/14 06:03:13;;;;;;;67.95;31.52;;;;;;;;;;5017860;28;20216;-74
2021/10/14 06:05:38;;;;;;;67.80;29.77;;;;;;;;;;5028180;28;20387;-75
2021/10/14 06:08:04;;;;;;;62.33;29.00;;;;;;;;;;5022371;28;20213;-75
2021/10/14 06:10:29;;;;;;;64.55;29.30;;;;;;;;;;5018006;28;20182;-75
2021/10/14 06:12:54;;;;;;;69.57;30.65;;;;;;;;;;5022980;28;20590;-74
2021/10/14 06:15:20;;;;;;;63.47;30.55;;;;;;;;;;5013768;28;20213;-74
2021/10/14 06:17:45;;;;;;;64.75;28.92;;;;;;;;;;5023592;28;20217;-74
2021/10/14 06:20:11;;;;;;;66.72;28.63;;;;;;;;;;5011610;28;20622;-74
2021/10/14 06:22:36;;;;;;;60.00;28.88;;;;;;;;;;5022661;28;20202;-74
2021/10/14 06:25:02;;;;;;;61.03;29.40;;;;;;;;;;5017393;28;20192;-74
2021/10/14 06:27:27;;;;;;;52.90;26.73;;;;;;;;;;5025702;28;20713;-76
2021/10/14 06:29:54;;;;;;;53.85;27.60;;;;;;;;;;5018718;28;20209;-74
2021/10/14 06:32:20;;;;;;;57.92;28.00;;;;;;;;;;5028023;28;20178;-74
2021/10/14 06:34:45;;;;;;;57.17;27.20;;;;;;;;;;5017800;28;20255;-74
2021/10/14 06:37:11;;;;;;;56.95;27.25;;;;;;;;;;5024972;28;20673;-74
2021/10/14 06:39:36;;;;;;;60.35;27.77;;;;;;;;;;5024701;28;20541;-74
2021/10/14 06:42:01;;;;;;;62.28;28.95;;;;;;;;;;5017855;28;20225;-74
2021/10/14 06:44:27;;;;;;;59.47;29.77;;;;;;;;;;5024998;28;20279;-74
2021/10/14 06:46:52;;;;;;;59.58;29.45;;;;;;;;;;5019860;28;20186;-74
2021/10/14 06:49:18;;;;;;;64.70;30.05;;;;;;;;;;5027722;28;20603;-74
2021/10/14 06:51:43;;;;;;;64.30;29.75;;;;;;;;;;5017845;28;20192;-74
2021/10/14 06:54:11;;;;;;;63.47;31.48;;;;;;;;;;5027271;28;20197;-74
2021/10/14 06:56:37;;;;;;;71.07;32.45;;;;;;;;;;5014407;28;20302;-74
2021/10/14 06:59:02;;;;;;;69.13;32.75;;;;;;;;;;5023760;28;20273;-75
2021/10/14 07:01:28;;;;;;;70.00;33.13;;;;;;;;;;5014671;28;20240;-74
2021/10/14 07:03:53;;;;;;;70.35;33.03;;;;;;;;;;5024278;28;20198;-74
2021/10/14 07:06:19;;;;;;;70.20;34.30;;;;;;;;;;5017757;28;20638;-74
2021/10/14 07:08:44;;;;;;;63.95;32.75;;;;;;;;;;5022135;28;20277;-74
2021/10/14 07:11:09;;;;;;;71.93;34.53;;;;;;;;;;5026860;28;20178;-74
2021/10/14 07:13:36;;;;;;;71.15;36.20;;;;;;;;;;5014811;28;20564;-74
2021/10/14 07:16:02;;;;;;;74.35;34.97;;;;;;;;;;5025835;28;20535;-74
2021/10/14 07:18:27;;;;;;;70.10;33.63;;;;;;;;;;5016342;28;20202;-76
2021/10/14 07:20:52;;;;;;;74.55;34.10;;;;;;;;;;5025455;28;20197;-74
2021/10/14 07:23:18;;;;;;;77.18;37.15;;;;;;;;;;5013582;28;20217;-75
2021/10/14 07:25:44;;;;;;;74.03;35.65;;;;;;;;;;5023871;28;20642;-76
2021/10/14 07:28:10;;;;;;;75.60;34.72;;;;;;;;;;5014508;28;20216;-75
2021/10/14 07:30:37;;;;;;;74.15;35.45;;;;;;;;;;5025404;28;20252;-74
2021/10/14 07:33:05;;;;;;;77.80;37.08;;;;;;;;;;5012114;28;21330;-74
2021/10/14 07:35:35;;;;;;;65.90;33.38;;;;;;;;;;5025149;28;20194;-74
2021/10/14 07:38:03;;;;;;;64.05;34.00;;;;;;;;;;5013757;28;20301;-74
2021/10/14 07:40:29;;;;;;;65.30;33.42;;;;;;;;;;5024110;28;20225;-74
2021/10/14 07:42:54;;;;;;;67.32;35.08;;;;;;;;;;5024324;28;20249;-74
2021/10/14 07:45:20;;;;;;;70.20;35.20;;;;;;;;;;5014776;28;20189;-74
2021/10/14 07:47:45;;;;;;;66.82;34.60;;;;;;;;;;5022882;28;20189;-73
2021/10/14 07:50:12;;;;;;;60.60;32.92;;;;;;;;;;5014275;28;20285;-74
2021/10/14 07:52:38;;;;;;;69.63;34.20;;;;;;;;;;5026127;28;20182;-74
2021/10/14 07:55:03;;;;;;;62.13;34.05;;;;;;;;;;5014319;28;20200;-75
2021/10/14 07:57:28;;;;;;;61.95;33.83;;;;;;;;;;5024683;28;20720;-75
2021/10/14 07:59:54;;;;;;;66.68;33.58;;;;;;;;;;5015740;28;20296;-74
2021/10/14 08:02:19;;;;;;;69.93;33.47;;;;;;;;;;5024080;28;20213;-74
2021/10/14 08:04:45;;;;;;;63.50;33.70;;;;;;;;;;5009996;28;20193;-74
2021/10/14 08:07:11;;;;;;;69.63;33.85;;;;;;;;;;5024389;28;20305;-74
2021/10/14 08:09:36;;;;;;;63.70;34.00;;;;;;;;;;5018475;28;20834;-74
2021/10/14 08:12:02;;;;;;;63.65;33.67;;;;;;;;;;5024684;28;20178;-78
2021/10/14 08:14:27;;;;;;;58.15;33.50;;;;;;;;;;5022954;28;20630;-74
2021/10/14 08:16:52;;;;;;;61.90;32.63;;;;;;;;;;5016941;28;20252;-76
2021/10/14 08:19:18;;;;;;;58.35;33.03;;;;;;;;;;5024883;28;20646;-75
2021/10/14 08:21:43;;;;;;;58.42;31.70;;;;;;;;;;5019104;28;20206;-75
2021/10/14 08:24:09;;;;;;;61.55;32.65;;;;;;;;;;5026025;28;20193;-74
2021/10/14 08:26:35;;;;;;;57.38;33.90;;;;;;;;;;5016548;28;20226;-77
2021/10/14 08:29:00;;;;;;;60.28;32.90;;;;;;;;;;5021228;28;20269;-75
2021/10/14 08:31:25;;;;;;;58.78;31.60;;;;;;;;;;5016453;28;20315;-75
2021/10/14 08:33:52;;;;;;;55.13;29.95;;;;;;;;;;5025318;28;20202;-74
2021/10/14 08:36:18;;;;;;;60.90;32.72;;;;;;;;;;5017540;28;20194;-75
2021/10/14 08:38:43;;;;;;;61.13;31.60;;;;;;;;;;5021128;28;20186;-73
2021/10/14 08:41:08;;;;;;;59.42;31.80;;;;;;;;;;5015390;28;20528;-74
2021/10/14 08:43:35;;;;;;;60.30;31.85;;;;;;;;;;5015700;28;20552;-74
2021/10/14 08:46:02;;;;;;;54.60;30.17;;;;;;;;;;5014146;28;20217;-76
2021/10/14 08:48:29;;;;;;;58.67;33.55;;;;;;;;;;5027363;28;20217;-74
2021/10/14 08:50:55;;;;;;;51.05;31.83;;;;;;;;;;5028028;28;20197;-74
2021/10/14 08:53:20;;;;;;;58.00;32.42;;;;;;;;;;5015120;28;20191;-74
2021/10/14 08:55:45;;;;;;;62.92;32.83;;;;;;;;;;5026162;28;20196;-75
2021/10/14 08:58:13;;;;;;;53.30;31.75;;;;;;;;;;5015969;28;20202;-73
2021/10/14 09:00:43;;;;;;;52.28;31.52;;;;;;;;;;5022433;28;20588;-75
2021/10/14 09:03:26;;;;;;;50.40;29.17;;;;;;;;;;5014904;28;20194;-75
2021/10/14 09:05:52;;;;;;;53.00;30.58;;;;;;;;;;5024538;28;20213;-75
2021/10/14 09:08:47;;;;;;;51.47;30.52;;;;;;;;;;5015519;28;20190;-75
2021/10/14 09:11:18;;;;;;;51.03;30.80;;;;;;;;;;5023036;28;20381;-74
2021/10/14 09:13:46;;;;;;;49.63;30.55;;;;;;;;;;5015302;28;20186;-75
2021/10/14 09:16:33;;;;;;;49.17;29.48;;;;;;;;;;5025219;28;20196;-77
2021/10/14 09:19:21;;;;;;;48.58;29.40;;;;;;;;;;5017981;28;20188;-76
2021/10/14 09:21:49;;;;;;;48.17;29.38;;;;;;;;;;5022339;28;20206;-74
2021/10/14 09:24:36;;;;;;;44.85;27.95;;;;;;;;;;5009301;28;20548;-75
2021/10/14 09:27:08;;;;;;;44.72;27.20;;;;;;;;;;5021711;28;20182;-75
2021/10/14 09:29:37;;;;;;;42.58;27.35;;;;;;;;;;5011455;28;20182;-76
2021/10/14 09:32:05;;;;;;;37.72;24.90;;;;;;;;;;5023705;28;20669;-78
2021/10/14 09:34:41;;;;;;;37.70;25.95;;;;;;;;;;5020381;28;20197;-78
2021/10/14 09:37:15;;;;;;;43.75;26.38;;;;;;;;;;5028871;28;20563;-75
2021/10/14 09:39:55;;;;;;;43.53;25.90;;;;;;;;;;5018513;28;20645;-75
2021/10/14 09:42:39;;;;;;;43.88;26.35;;;;;;;;;;5027301;28;20294;-75
2021/10/14 09:45:26;;;;;;;41.90;25.35;;;;;;;;;;5016890;28;20208;-75
2021/10/14 09:48:04;;;;;;;41.42;27.00;;;;;;;;;;5028331;28;20672;-75
2021/10/14 09:50:33;;;;;;;38.10;25.83;;;;;;;;;;5019992;28;20186;-75
2021/10/14 09:53:00;;;;;;;37.85;25.00;;;;;;;;;;5025862;28;20193;-75
2021/10/14 09:55:25;;;;;;;39.33;26.10;;;;;;;;;;5017214;28;20239;-76
2021/10/14 09:57:51;;;;;;;38.22;26.48;;;;;;;;;;5029834;28;20562;-79
2021/10/14 10:00:18;;;;;;;44.22;25.80;;;;;;;;;;5019804;28;20268;-81
2021/10/14 10:02:45;;;;;;;35.92;22.15;;;;;;;;;;5027362;28;20394;-76
2021/10/14 10:05:11;;;;;;;38.35;24.73;;;;;;;;;;5027742;28;20186;-76
2021/10/14 10:07:39;;;;;;;38.50;25.23;;;;;;;;;;5015844;28;20182;-77
2021/10/14 10:10:06;;;;;;;35.88;23.77;;;;;;;;;;5023562;28;20209;-75
2021/10/14 10:12:33;;;;;;;38.00;24.25;;;;;;;;;;5014790;28;20244;-74
2021/10/14 10:14:59;;;;;;;36.50;21.95;;;;;;;;;;5021437;28;20190;-75
2021/10/14 10:17:39;;;;;;;37.35;23.20;;;;;;;;;;5018186;28;20205;-75
2021/10/14 10:20:06;;;;;;;38.45;22.88;;;;;;;;;;5023640;28;20272;-73
2021/10/14 10:22:34;;;;;;;38.10;24.48;;;;;;;;;;5017107;28;20228;-76
2021/10/14 10:25:36;;;;;;;31.58;21.85;;;;;;;;;;5027577;28;20206;-74
2021/10/14 10:28:05;;;;;;;34.40;21.65;;;;;;;;;;4976753;28;20190;-75
2021/10/14 10:30:40;;;;;;;35.08;21.33;;;;;;;;;;5018626;28;20202;-75
2021/10/14 10:33:07;;;;;;;30.73;20.95;;;;;;;;;;5036594;28;20235;-79
2021/10/14 10:35:38;;;;;;;28.77;20.52;;;;;;;;;;5030479;28;20247;-75
2021/10/14 10:38:32;;;;;;;31.38;19.75;;;;;;;;;;5014137;28;20198;-76
2021/10/14 10:40:58;;;;;;;28.95;18.75;;;;;;;;;;5023241;28;20210;-75
2021/10/14 10:43:29;;;;;;;26.92;18.63;;;;;;;;;;5020353;28;20287;-74
2021/10/14 10:46:05;;;;;;;32.88;18.75;;;;;;;;;;5037549;28;20193;-74
2021/10/14 10:48:41;;;;;;;26.67;17.60;;;;;;;;;;5018759;28;20642;-76
2021/10/14 10:51:08;;;;;;;25.55;16.77;;;;;;;;;;5035843;28;20189;-75
2021/10/14 10:53:48;;;;;;;22.67;16.13;;;;;;;;;;5016556;28;20186;-75
2021/10/14 10:56:38;;;;;;;21.90;14.68;;;;;;;;;;5028123;28;20189;-74
2021/10/14 10:59:04;;;;;;;20.30;14.85;;;;;;;;;;5016549;28;20255;-74
2021/10/14 11:01:30;;;;;;;21.92;15.13;;;;;;;;;;5026214;28;20692;-74
2021/10/14 11:04:00;;;;;;;21.90;13.93;;;;;;;;;;5018306;28;20316;-74
2021/10/14 11:06:28;;;;;;;17.98;13.25;;;;;;;;;;5027322;28;20305;-76
2021/10/14 11:08:58;;;;;;;17.85;12.82;;;;;;;;;;5013584;28;22687;-75
2021/10/14 11:11:24;;;;;;;18.58;12.00;;;;;;;;;;5026048;28;20588;-74
2021/10/14 11:13:51;;;;;;;16.35;11.32;;;;;;;;;;5019770;28;20208;-73
2021/10/14 11:16:18;;;;;;;14.95;11.60;;;;;;;;;;5019680;28;20298;-75
2021/10/14 11:18:46;;;;;;;16.58;11.35;;;;;;;;;;5024768;28;20198;-75
2021/10/14 11:21:16;;;;;;;16.10;11.43;;;;;;;;;;5016657;28;20197;-74
2021/10/14 11:23:47;;;;;;;15.18;10.70;;;;;;;;;;5023196;28;20552;-74
2021/10/14 11:26:14;;;;;;;20.05;12.65;;;;;;;;;;5020068;28;20186;-75
2021/10/14 11:28:48;;;;;;;19.40;11.18;;;;;;;;;;5028276;28;20186;-74
2021/10/14 11:31:24;;;;;;;17.05;12.27;;;;;;;;;;5017823;28;20550;-74
2021/10/14 11:33:51;;;;;;;19.70;12.77;;;;;;;;;;5027405;28;20663;-74
2021/10/14 11:36:19;;;;;;;19.05;12.02;;;;;;;;;;5017037;28;20190;-75
2021/10/14 11:38:55;;;;;;;20.38;13.40;;;;;;;;;;5023825;28;20259;-74
2021/10/14 11:41:20;;;;;;;17.90;11.90;;;;;;;;;;5019882;28;20197;-74
2021/10/14 11:43:54;;;;;;;16.33;12.02;;;;;;;;;;5026045;28;20174;-74
2021/10/14 11:46:24;;;;;;;16.48;11.70;;;;;;;;;;5013381;28;20540;-74
2021/10/14 11:48:51;;;;;;;13.98;8.95;;;;;;;;;;5028453;28;20300;-75
2021/10/14 11:51:18;;;;;;;13.15;8.90;;;;;;;;;;5017651;28;20225;-74
2021/10/14 11:53:54;;;;;;;14.05;8.57;;;;;;;;;;5026387;28;20835;-74
2021/10/14 11:56:19;;;;;;;12.02;6.68;;;;;;;;;;5014595;28;20219;-75
2021/10/14 11:58:45;;;;;;;13.05;6.85;;;;;;;;;;5024771;28;20612;-75
2021/10/14 12:01:12;;;;;;;7.85;5.60;;;;;;;;;;5023214;28;20634;-74
2021/10/14 12:03:39;;;;;;;5.20;4.03;;;;;;;;;;5019786;28;20295;-76
2021/10/14 12:06:07;;;;;;;7.35;4.47;;;;;;;;;;5027812;28;20205;-75
2021/10/14 12:08:33;;;;;;;5.43;3.80;;;;;;;;;;5018563;28;20194;-74
2021/10/14 12:10:58;;;;;;;8.20;3.80;;;;;;;;;;5025250;28;20197;-75
2021/10/14 12:13:29;;;;;;;5.60;3.55;;;;;;;;;;5017232;28;20189;-75
2021/10/14 12:16:08;;;;;;;7.65;3.63;;;;;;;;;;5024189;28;20555;-74
2021/10/14 12:18:33;;;;;;;10.02;3.92;;;;;;;;;;4323622;28;10000729;-73
2021/10/14 12:21:00;;;;;;;6.93;3.38;;;;;;;;;;5021025;28;20253;-75
2021/10/14 12:23:29;;;;;;;5.20;3.65;;;;;;;;;;5010575;28;20377;-78
2021/10/14 12:26:12;;;;;;;5.38;3.28;;;;;;;;;;5020877;28;20581;-74
2021/10/14 12:28:43;;;;;;;8.02;3.53;;;;;;;;;;5011883;28;20186;-74
2021/10/14 12:31:11;;;;;;;8.65;3.67;;;;;;;;;;5018098;28;20212;-76
2021/10/14 12:33:39;;;;;;;6.07;3.33;;;;;;;;;;5008530;28;20209;-74
2021/10/14 12:36:04;;;;;;;6.13;3.28;;;;;;;;;;4672899;28;10000488;-74
2021/10/14 12:38:41;;;;;;;7.95;4.20;;;;;;;;;;5011250;28;21960;-79
2021/10/14 12:41:12;;;;;;;8.38;4.00;;;;;;;;;;4324967;28;10000242;-74
2021/10/14 12:44:01;;;;;;;9.05;3.78;;;;;;;;;;5010860;28;20217;-74
2021/10/14 12:51:56;;;;;;;5.35;3.58;;;;;;;;;;5024949;28;20493;-74
2021/10/14 12:54:24;;;;;;;5.40;3.25;;;;;;;;;;5026244;28;20194;-74
2021/10/14 12:56:52;;;;;;;6.20;3.20;;;;;;;;;;5026339;28;20206;-74
2021/10/14 12:59:18;;;;;;;4.75;2.47;;;;;;;;;;5016541;28;20214;-74
2021/10/14 13:01:45;;;;;;;5.93;2.83;;;;;;;;;;5020614;28;20222;-74
2021/10/14 13:04:11;;;;;;;5.05;2.63;;;;;;;;;;5025229;28;20196;-73
2021/10/14 13:06:37;;;;;;;5.93;2.30;;;;;;;;;;5016158;28;20518;-78
2021/10/14 13:09:04;;;;;;;5.13;2.42;;;;;;;;;;5025498;28;20280;-74
2021/10/14 13:11:32;;;;;;;5.72;2.30;;;;;;;;;;5014781;28;20186;-75
2021/10/14 13:13:58;;;;;;;3.92;1.90;;;;;;;;;;5025262;28;20276;-75
2021/10/14 13:16:24;;;;;;;2.78;1.80;;;;;;;;;;5016009;28;20719;-75
2021/10/14 13:18:50;;;;;;;5.22;2.08;;;;;;;;;;5025136;28;20186;-76
2021/10/14 13:21:15;;;;;;;4.20;1.90;;;;;;;;;;5014744;28;20213;-74
2021/10/14 13:23:41;;;;;;;4.35;2.10;;;;;;;;;;5025530;28;20194;-74
2021/10/14 13:26:07;;;;;;;5.22;1.80;;;;;;;;;;5016553;28;20188;-74
2021/10/14 13:28:33;;;;;;;2.42;1.75;;;;;;;;;;5027367;28;20213;-74
2021/10/14 13:31:04;;;;;;;4.78;2.20;;;;;;;;;;5018465;28;20178;-74
2021/10/14 13:33:31;;;;;;;6.80;2.17;;;;;;;;;;5024558;28;20483;-74
2021/10/14 13:35:58;;;;;;;8.00;2.08;;;;;;;;;;5022185;28;20182;-76
2021/10/14 13:38:25;;;;;;;4.05;2.03;;;;;;;;;;5013240;28;20186;-73
2021/10/14 13:41:00;;;;;;;4.45;1.80;;;;;;;;;;5025269;28;20617;-74
2021/10/14 13:43:29;;;;;;;5.03;1.90;;;;;;;;;;5013015;28;20226;-74
2021/10/14 13:45:55;;;;;;;8.82;1.98;;;;;;;;;;5025579;28;20217;-74
2021/10/14 13:48:20;;;;;;;4.63;1.88;;;;;;;;;;5015263;28;20300;-74
2021/10/14 13:50:47;;;;;;;4.68;2.08;;;;;;;;;;5024145;28;20206;-76
2021/10/14 13:53:14;;;;;;;4.00;2.03;;;;;;;;;;5016104;28;20638;-76
2021/10/14 13:55:41;;;;;;;6.00;2.10;;;;;;;;;;5023889;28;20212;-74
2021/10/14 13:58:06;;;;;;;8.85;1.90;;;;;;;;;;5016060;28;20206;-73
2021/10/14 14:00:31;;;;;;;6.78;2.15;;;;;;;;;;5021996;28;20226;-76
2021/10/14 14:02:57;;;;;;;4.75;2.30;;;;;;;;;;5011156;28;20452;-72
2021/10/14 14:05:23;;;;;;;3.25;1.80;;;;;;;;;;5023649;28;20350;-73
2021/10/14 14:07:48;;;;;;;6.65;2.08;;;;;;;;;;5015970;28;20244;-72
2021/10/14 14:10:13;;;;;;;6.18;2.53;;;;;;;;;;5022436;28;20194;-73
2021/10/14 14:12:39;;;;;;;6.88;2.00;;;;;;;;;;5023550;28;20194;-73
2021/10/14 14:15:05;;;;;;;10.48;2.33;;;;;;;;;;5014333;28;20186;-73
2021/10/14 14:17:30;;;;;;;3.80;2.15;;;;;;;;;;5023458;28;20190;-76
2021/10/14 14:19:55;;;;;;;4.25;2.35;;;;;;;;;;5016646;28;20642;-74
2021/10/14 14:22:21;;;;;;;4.45;2.58;;;;;;;;;;5026099;28;20618;-74
2021/10/14 14:24:46;;;;;;;7.43;2.03;;;;;;;;;;5021035;28;20600;-75
2021/10/14 14:27:11;;;;;;;4.60;2.10;;;;;;;;;;5028691;28;20182;-74